Time;durP1;ratioP1;P1;durP2;ratioP2;P2;SDS_P1;SDS_P2;PMS_P1;PMS_P2;Temp;Humidity;BMP_temperature;BMP_pressure;BME280_temperature;BME280_humidity;BME280_pressure;Samples;Min_cycle;Max_cycle;Signal;HPM_P1;HPM_P2
2022/01/30 00:02:16;;;;;;;8.68;8.18;;;;;;;;;;5084965;28;20395;-73
2022/01/30 00:04:42;;;;;;;8.88;8.38;;;;;;;;;;5082845;28;20028;-72
2022/01/30 00:07:07;;;;;;;8.50;8.00;;;;;;;;;;5083340;28;20063;-72
2022/01/30 00:09:33;;;;;;;8.95;8.45;;;;;;;;;;5083321;28;20031;-72
2022/01/30 00:12:02;;;;;;;9.30;8.70;;;;;;;;;;5086797;28;20506;-72
2022/01/30 00:14:31;;;;;;;9.43;8.93;;;;;;;;;;5081946;28;20077;-72
2022/01/30 00:17:03;;;;;;;9.07;8.57;;;;;;;;;;5084473;28;20032;-72
2022/01/30 00:19:36;;;;;;;9.07;8.57;;;;;;;;;;5084594;28;20047;-73
2022/01/30 00:22:21;;;;;;;8.98;8.48;;;;;;;;;;5085143;28;20395;-72
2022/01/30 00:24:57;;;;;;;8.95;8.45;;;;;;;;;;5083358;28;20028;-72
2022/01/30 00:27:30;;;;;;;8.90;8.40;;;;;;;;;;5083957;28;20294;-72
2022/01/30 00:29:55;;;;;;;9.05;8.55;;;;;;;;;;5083989;28;20141;-72
2022/01/30 00:32:21;;;;;;;8.68;8.18;;;;;;;;;;5083447;28;20039;-72
2022/01/30 00:34:47;;;;;;;8.85;8.35;;;;;;;;;;5080846;28;20043;-72
2022/01/30 00:37:13;;;;;;;8.98;8.48;;;;;;;;;;5082541;28;20071;-72
2022/01/30 00:39:38;;;;;;;8.68;8.15;;;;;;;;;;5085795;28;20039;-72
2022/01/30 00:42:04;;;;;;;8.68;8.18;;;;;;;;;;5083126;28;20047;-72
2022/01/30 00:44:30;;;;;;;8.93;8.43;;;;;;;;;;5084296;28;20036;-72
2022/01/30 00:46:56;;;;;;;8.57;8.07;;;;;;;;;;5081117;28;20031;-72
2022/01/30 00:49:22;;;;;;;8.80;8.23;;;;;;;;;;5082508;28;20415;-72
2022/01/30 00:51:48;;;;;;;8.75;8.15;;;;;;;;;;5083415;28;20035;-73
2022/01/30 00:54:14;;;;;;;8.52;7.95;;;;;;;;;;5083210;28;20031;-73
2022/01/30 00:56:39;;;;;;;9.18;8.60;;;;;;;;;;5081867;28;20039;-72
2022/01/30 00:59:05;;;;;;;9.02;8.52;;;;;;;;;;5083830;28;20043;-73
2022/01/30 01:01:32;;;;;;;8.75;8.25;;;;;;;;;;5083977;28;20506;-73
2022/01/30 01:03:59;;;;;;;7.90;7.50;;;;;;;;;;5078015;28;20082;-70
2022/01/30 01:06:25;;;;;;;8.90;8.40;;;;;;;;;;5070455;28;20255;-73
2022/01/30 01:08:58;;;;;;;8.60;8.10;;;;;;;;;;5090198;28;20032;-72
2022/01/30 01:24:16;;;;;;;8.65;8.15;;;;;;;;;;5079855;28;20507;-72
2022/01/30 01:26:43;;;;;;;8.57;8.07;;;;;;;;;;5082719;28;20024;-71
2022/01/30 01:29:08;;;;;;;9.13;8.63;;;;;;;;;;5075061;28;20036;-73
2022/01/30 01:31:34;;;;;;;8.48;7.97;;;;;;;;;;5066708;28;20515;-73
2022/01/30 01:34:13;;;;;;;8.68;8.13;;;;;;;;;;5067723;28;20028;-73
2022/01/30 01:36:39;;;;;;;9.00;8.32;;;;;;;;;;5084838;28;20068;-73
2022/01/30 01:39:05;;;;;;;9.18;8.57;;;;;;;;;;5069211;28;20074;-73
2022/01/30 01:41:32;;;;;;;8.75;8.25;;;;;;;;;;5068163;28;20045;-71
2022/01/30 01:43:59;;;;;;;8.95;8.43;;;;;;;;;;5075995;28;20036;-71
2022/01/30 01:46:29;;;;;;;9.20;8.70;;;;;;;;;;5084042;28;20090;-72
2022/01/30 01:48:55;;;;;;;9.43;8.90;;;;;;;;;;5070362;28;20476;-71
2022/01/30 01:51:25;;;;;;;9.50;8.85;;;;;;;;;;5078822;28;20032;-71
2022/01/30 01:53:55;;;;;;;9.85;9.15;;;;;;;;;;5084380;28;20491;-71
2022/01/30 01:56:22;;;;;;;9.68;8.90;;;;;;;;;;5071258;28;20037;-71
2022/01/30 01:58:54;;;;;;;9.25;8.65;;;;;;;;;;5074171;28;20055;-70
2022/01/30 02:01:51;;;;;;;9.95;9.35;;;;;;;;;;5082066;28;20028;-71
2022/01/30 02:04:17;;;;;;;10.27;9.57;;;;;;;;;;5069778;28;20460;-71
2022/01/30 02:06:43;;;;;;;9.77;8.95;;;;;;;;;;5075424;28;20132;-72
2022/01/30 02:09:10;;;;;;;9.48;8.88;;;;;;;;;;5084503;28;20055;-72
2022/01/30 02:11:40;;;;;;;9.98;9.30;;;;;;;;;;5069343;28;20040;-71
2022/01/30 02:25:00;;;;;;;10.68;9.98;;;;;;;;;;5086305;28;20079;-72
2022/01/30 02:27:32;;;;;;;10.45;9.85;;;;;;;;;;5072142;28;20051;-71
2022/01/30 02:29:58;;;;;;;9.73;9.13;;;;;;;;;;5069750;28;20044;-72
2022/01/30 02:32:25;;;;;;;10.60;9.90;;;;;;;;;;5073572;28;20035;-71
2022/01/30 02:34:51;;;;;;;10.10;9.50;;;;;;;;;;5086416;28;20036;-71
2022/01/30 02:37:17;;;;;;;11.20;10.50;;;;;;;;;;5082451;28;20028;-71
2022/01/30 02:39:43;;;;;;;11.65;10.95;;;;;;;;;;5081827;28;20445;-71
2022/01/30 02:42:14;;;;;;;11.30;10.48;;;;;;;;;;5071734;28;20036;-71
2022/01/30 02:44:46;;;;;;;11.70;10.85;;;;;;;;;;5082192;28;20210;-71
2022/01/30 02:47:37;;;;;;;11.18;10.48;;;;;;;;;;5071302;28;20633;-72
2022/01/30 02:50:14;;;;;;;11.02;10.32;;;;;;;;;;5082827;28;20190;-71
2022/01/30 02:52:43;;;;;;;11.73;10.82;;;;;;;;;;5081346;28;20504;-72
2022/01/30 02:55:10;;;;;;;11.25;10.48;;;;;;;;;;5073103;28;20614;-71
2022/01/30 02:57:36;;;;;;;11.00;10.27;;;;;;;;;;5068991;28;20033;-71
2022/01/30 03:00:05;;;;;;;11.45;10.60;;;;;;;;;;5080816;28;20043;-73
2022/01/30 03:02:31;;;;;;;;;;;;;;;;;;5077729;28;20458;-70
2022/01/30 03:04:56;;;;;;;11.48;10.68;;;;;;;;;;5069621;28;19959;-71
2022/01/30 03:07:22;;;;;;;11.13;10.38;;;;;;;;;;5068851;28;20077;-71
2022/01/30 03:09:54;;;;;;;12.05;11.15;;;;;;;;;;5081970;28;20039;-70
2022/01/30 03:12:20;;;;;;;11.20;10.50;;;;;;;;;;5079505;28;20526;-72
2022/01/30 03:14:46;;;;;;;12.10;11.30;;;;;;;;;;5069959;28;20060;-72
2022/01/30 03:17:12;;;;;;;11.50;10.80;;;;;;;;;;5078117;28;20036;-72
2022/01/30 03:19:38;;;;;;;11.43;10.73;;;;;;;;;;5088553;28;20043;-73
2022/01/30 03:22:04;;;;;;;11.25;10.55;;;;;;;;;;5085788;28;20047;-71
2022/01/30 03:24:35;;;;;;;11.98;10.88;;;;;;;;;;5079283;28;20036;-71
2022/01/30 03:27:10;;;;;;;11.57;10.88;;;;;;;;;;5087399;28;20039;-71
2022/01/30 03:29:50;;;;;;;11.68;10.88;;;;;;;;;;5072633;28;20423;-71
2022/01/30 03:32:28;;;;;;;12.70;11.90;;;;;;;;;;5079636;28;20043;-69
2022/01/30 03:34:54;;;;;;;11.98;11.25;;;;;;;;;;5082198;28;20031;-70
2022/01/30 03:37:20;;;;;;;12.23;11.23;;;;;;;;;;5076896;28;20127;-70
2022/01/30 03:39:47;;;;;;;11.40;10.60;;;;;;;;;;5085615;28;20040;-69
2022/01/30 03:42:13;;;;;;;11.77;10.93;;;;;;;;;;5085631;28;20043;-69
2022/01/30 03:44:39;;;;;;;11.55;10.82;;;;;;;;;;5079190;28;20108;-70
2022/01/30 03:47:05;;;;;;;11.50;10.73;;;;;;;;;;5072833;28;20032;-70
2022/01/30 03:49:31;;;;;;;11.30;10.60;;;;;;;;;;5086735;28;20032;-70
2022/01/30 03:51:57;;;;;;;11.48;10.77;;;;;;;;;;5084141;28;20040;-68
2022/01/30 03:54:26;;;;;;;10.63;10.02;;;;;;;;;;5077022;28;20040;-69
2022/01/30 03:56:52;;;;;;;11.45;10.73;;;;;;;;;;5077536;28;20086;-71
2022/01/30 03:59:24;;;;;;;11.98;11.00;;;;;;;;;;5083550;28;20040;-68
2022/01/30 04:01:50;;;;;;;11.15;10.45;;;;;;;;;;5068030;28;20037;-70
2022/01/30 04:04:16;;;;;;;11.25;10.55;;;;;;;;;;5079523;28;20036;-70
2022/01/30 04:06:42;;;;;;;11.35;10.52;;;;;;;;;;5079654;28;20028;-70
2022/01/30 04:09:37;;;;;;;10.73;10.05;;;;;;;;;;5074976;28;20527;-70
2022/01/30 04:12:14;;;;;;;11.98;11.18;;;;;;;;;;5083617;28;20058;-70
2022/01/30 04:15:15;;;;;;;12.15;11.35;;;;;;;;;;5060243;28;20487;-70
2022/01/30 04:18:01;;;;;;;11.82;11.10;;;;;;;;;;5081383;28;20036;-70
2022/01/30 04:20:33;;;;;;;11.23;10.45;;;;;;;;;;5080486;28;20368;-70
2022/01/30 04:23:26;;;;;;;11.05;10.35;;;;;;;;;;5084482;28;20444;-70
2022/01/30 04:25:51;;;;;;;11.80;10.90;;;;;;;;;;5070382;28;20078;-70
2022/01/30 04:28:43;;;;;;;11.35;10.65;;;;;;;;;;5076987;28;20028;-70
2022/01/30 04:31:13;;;;;;;12.30;11.25;;;;;;;;;;5083434;28;20115;-70
2022/01/30 04:33:53;;;;;;;12.10;11.40;;;;;;;;;;5083251;28;20044;-70
2022/01/30 04:36:56;;;;;;;12.20;11.40;;;;;;;;;;5073829;28;20060;-70
2022/01/30 05:01:16;;;;;;;11.30;10.45;;;;;;;;;;5073736;28;20248;-70
2022/01/30 05:04:27;;;;;;;12.07;10.88;;;;;;;;;;5079563;28;20078;-70
2022/01/30 05:09:47;;;;;;;16.75;11.73;;;;;;;;;;5075684;28;20031;-70
2022/01/30 05:12:37;;;;;;;14.73;11.43;;;;;;;;;;5081602;28;20028;-70
2022/01/30 05:15:22;;;;;;;15.57;10.85;;;;;;;;;;5068108;28;20075;-70
2022/01/30 05:18:04;;;;;;;12.90;11.65;;;;;;;;;;5080899;28;20020;-70
2022/01/30 05:20:53;;;;;;;13.20;11.13;;;;;;;;;;5080906;28;20055;-70
2022/01/30 05:23:36;;;;;;;19.73;11.63;;;;;;;;;;5087944;28;20507;-71
2022/01/30 05:26:08;;;;;;;13.13;11.50;;;;;;;;;;5083361;28;20035;-70
2022/01/30 05:28:39;;;;;;;15.88;11.32;;;;;;;;;;5070860;28;20043;-71
2022/01/30 05:31:27;;;;;;;16.75;10.90;;;;;;;;;;5070966;28;20120;-71
2022/01/30 05:34:26;;;;;;;16.75;11.60;;;;;;;;;;5068941;28;20044;-71
2022/01/30 05:37:19;;;;;;;20.67;11.48;;;;;;;;;;5085276;28;20039;-71
2022/01/30 05:40:14;;;;;;;18.48;11.95;;;;;;;;;;5085804;28;20047;-71
2022/01/30 05:43:00;;;;;;;16.75;10.48;;;;;;;;;;5086267;28;20044;-71
2022/01/30 05:45:55;;;;;;;16.42;11.07;;;;;;;;;;5077434;28;20153;-70
2022/01/30 05:48:21;;;;;;;12.40;11.10;;;;;;;;;;5083778;28;20053;-70
2022/01/30 05:51:06;;;;;;;18.45;11.70;;;;;;;;;;5088664;28;20497;-70
2022/01/30 05:53:42;;;;;;;19.05;11.63;;;;;;;;;;5073235;28;20130;-70
2022/01/30 05:56:15;;;;;;;16.05;11.00;;;;;;;;;;5077525;28;20067;-70
2022/01/30 05:58:41;;;;;;;15.43;10.85;;;;;;;;;;5088672;28;20455;-69
2022/01/30 06:01:18;;;;;;;12.85;10.73;;;;;;;;;;5082660;28;20036;-69
2022/01/30 06:03:44;;;;;;;15.98;10.57;;;;;;;;;;5069719;28;20056;-69
2022/01/30 06:06:09;;;;;;;15.93;10.43;;;;;;;;;;5081409;28;20387;-71
2022/01/30 06:08:45;;;;;;;13.05;10.75;;;;;;;;;;5077791;28;20118;-70
2022/01/30 06:11:11;;;;;;;19.35;10.50;;;;;;;;;;5069674;28;20056;-71
2022/01/30 06:13:37;;;;;;;18.27;10.93;;;;;;;;;;5085609;28;20043;-70
2022/01/30 06:16:04;;;;;;;14.10;10.43;;;;;;;;;;5075850;28;20044;-71
2022/01/30 06:18:29;;;;;;;19.30;11.23;;;;;;;;;;5087682;28;20100;-70
2022/01/30 06:21:15;;;;;;;12.50;10.80;;;;;;;;;;5086942;28;20029;-71
2022/01/30 06:23:52;;;;;;;13.82;10.63;;;;;;;;;;5086182;28;20044;-71
2022/01/30 06:26:56;;;;;;;18.10;10.60;;;;;;;;;;5061380;28;20479;-70
2022/01/30 06:29:28;;;;;;;20.85;10.82;;;;;;;;;;5066156;28;20063;-70
2022/01/30 06:32:14;;;;;;;14.75;10.45;;;;;;;;;;5067993;28;20110;-70
2022/01/30 06:34:58;;;;;;;16.08;10.80;;;;;;;;;;5067292;28;20041;-70
2022/01/30 06:37:42;;;;;;;19.67;10.80;;;;;;;;;;5066419;28;20040;-70
2022/01/30 06:40:29;;;;;;;15.82;11.25;;;;;;;;;;5051180;28;20040;-70
2022/01/30 06:43:13;;;;;;;18.55;11.55;;;;;;;;;;5067492;28;20043;-69
2022/01/30 06:46:17;;;;;;;13.80;11.02;;;;;;;;;;5026392;28;20546;-69
2022/01/30 06:49:15;;;;;;;17.25;11.02;;;;;;;;;;5025165;28;20507;-69
2022/01/30 06:52:01;;;;;;;14.38;10.52;;;;;;;;;;5030799;28;20103;-69
2022/01/30 06:54:45;;;;;;;13.30;10.75;;;;;;;;;;5024979;28;20040;-69
2022/01/30 06:57:29;;;;;;;13.75;10.95;;;;;;;;;;5034334;28;20037;-70
2022/01/30 07:00:13;;;;;;;17.52;11.98;;;;;;;;;;5046959;28;20127;-69
2022/01/30 07:03:08;;;;;;;16.60;11.43;;;;;;;;;;5045203;28;20051;-69
2022/01/30 07:05:49;;;;;;;15.70;10.70;;;;;;;;;;5029444;28;20075;-68
2022/01/30 07:08:35;;;;;;;15.05;10.85;;;;;;;;;;5030296;28;20048;-69
2022/01/30 07:11:01;;;;;;;12.48;10.88;;;;;;;;;;5046924;28;20048;-69
2022/01/30 07:13:26;;;;;;;15.55;10.90;;;;;;;;;;5045171;28;20051;-69
2022/01/30 07:15:52;;;;;;;12.30;10.70;;;;;;;;;;5045891;28;21129;-69
2022/01/30 07:18:17;;;;;;;14.15;10.85;;;;;;;;;;5073410;28;20115;-68
2022/01/30 07:20:43;;;;;;;14.95;10.38;;;;;;;;;;5073338;28;20089;-68
2022/01/30 07:23:08;;;;;;;16.05;10.90;;;;;;;;;;5084171;28;20123;-69
2022/01/30 07:25:34;;;;;;;17.25;10.48;;;;;;;;;;5083787;28;20516;-69
2022/01/30 07:27:59;;;;;;;13.90;10.32;;;;;;;;;;5069508;28;20128;-68
2022/01/30 07:30:25;;;;;;;15.35;10.90;;;;;;;;;;5070813;28;20082;-68
2022/01/30 07:32:51;;;;;;;15.88;11.13;;;;;;;;;;5091196;28;20032;-69
2022/01/30 07:35:17;;;;;;;19.33;10.25;;;;;;;;;;5078204;28;20515;-68
2022/01/30 07:37:43;;;;;;;24.20;12.38;;;;;;;;;;5074193;28;20388;-69
2022/01/30 07:40:09;;;;;;;14.95;11.38;;;;;;;;;;5081493;28;20483;-68
2022/01/30 07:42:35;;;;;;;18.27;11.63;;;;;;;;;;5083811;28;20024;-69
2022/01/30 07:45:04;;;;;;;13.77;11.07;;;;;;;;;;5080892;28;20119;-68
2022/01/30 07:47:30;;;;;;;17.73;11.05;;;;;;;;;;5069171;28;20290;-69
2022/01/30 07:49:57;;;;;;;17.25;10.95;;;;;;;;;;5075611;28;20035;-68
2022/01/30 07:52:23;;;;;;;17.33;10.98;;;;;;;;;;5082495;28;20033;-68
2022/01/30 07:54:49;;;;;;;14.38;11.52;;;;;;;;;;5080209;28;20024;-68
2022/01/30 07:57:15;;;;;;;17.80;12.13;;;;;;;;;;5079400;28;20028;-68
2022/01/30 07:59:41;;;;;;;22.23;11.60;;;;;;;;;;5068961;28;20450;-69
2022/01/30 08:02:08;;;;;;;14.70;11.52;;;;;;;;;;5069059;28;20033;-68
2022/01/30 08:04:33;;;;;;;19.13;12.65;;;;;;;;;;5080243;28;20027;-68
2022/01/30 08:07:00;;;;;;;20.83;12.27;;;;;;;;;;5075354;28;20694;-68
2022/01/30 08:09:26;;;;;;;18.55;11.68;;;;;;;;;;5068832;28;20670;-68
2022/01/30 08:11:52;;;;;;;16.98;11.55;;;;;;;;;;5073474;28;20048;-68
2022/01/30 08:14:18;;;;;;;19.52;11.18;;;;;;;;;;5082788;28;20028;-68
2022/01/30 08:16:43;;;;;;;18.52;11.68;;;;;;;;;;5068833;28;20082;-68
2022/01/30 08:19:09;;;;;;;18.20;10.95;;;;;;;;;;5069026;28;20495;-68
2022/01/30 08:21:35;;;;;;;18.70;11.60;;;;;;;;;;5078830;28;20043;-68
2022/01/30 08:24:00;;;;;;;20.45;11.40;;;;;;;;;;5083922;28;20119;-68
2022/01/30 08:26:26;;;;;;;22.38;11.93;;;;;;;;;;5068551;28;20042;-68
2022/01/30 08:28:51;;;;;;;20.45;12.27;;;;;;;;;;5073111;28;20118;-68
2022/01/30 08:31:17;;;;;;;19.67;12.25;;;;;;;;;;5083857;28;20028;-67
2022/01/30 08:33:42;;;;;;;21.27;11.23;;;;;;;;;;5068567;28;20033;-67
2022/01/30 08:36:08;;;;;;;18.15;11.43;;;;;;;;;;5082629;28;20028;-68
2022/01/30 08:38:34;;;;;;;20.30;12.15;;;;;;;;;;5082645;28;20046;-70
2022/01/30 08:41:00;;;;;;;21.92;12.07;;;;;;;;;;5081089;28;20028;-68
2022/01/30 08:43:25;;;;;;;17.00;12.75;;;;;;;;;;5073723;28;20504;-68
2022/01/30 08:45:52;;;;;;;20.80;12.55;;;;;;;;;;5086131;28;20092;-68
2022/01/30 08:48:19;;;;;;;13.57;11.35;;;;;;;;;;5068414;28;20040;-68
2022/01/30 08:50:45;;;;;;;14.55;11.48;;;;;;;;;;5075029;28;20028;-68
2022/01/30 08:53:11;;;;;;;20.60;12.70;;;;;;;;;;5079215;28;20031;-68
2022/01/30 08:55:37;;;;;;;20.33;11.75;;;;;;;;;;5081933;28;20043;-68
2022/01/30 08:58:08;;;;;;;20.58;11.60;;;;;;;;;;5078031;28;20039;-68
2022/01/30 09:00:35;;;;;;;23.85;12.40;;;;;;;;;;5065560;28;20052;-68
2022/01/30 09:03:03;;;;;;;16.63;11.18;;;;;;;;;;5066096;28;20123;-68
2022/01/30 09:05:30;;;;;;;21.10;12.02;;;;;;;;;;5081909;28;20487;-68
2022/01/30 09:08:00;;;;;;;16.23;11.23;;;;;;;;;;5067328;28;20120;-68
2022/01/30 09:10:26;;;;;;;18.10;11.70;;;;;;;;;;5066229;28;20551;-68
2022/01/30 09:12:51;;;;;;;17.02;10.95;;;;;;;;;;5071542;28;20032;-68
2022/01/30 09:15:17;;;;;;;20.17;11.48;;;;;;;;;;5078198;28;20033;-68
2022/01/30 09:17:44;;;;;;;16.08;10.30;;;;;;;;;;5066634;28;20440;-68
2022/01/30 09:20:11;;;;;;;17.83;10.25;;;;;;;;;;5068843;28;20079;-68
2022/01/30 09:22:38;;;;;;;21.15;11.35;;;;;;;;;;5080939;28;20399;-68
2022/01/30 09:25:05;;;;;;;17.42;11.27;;;;;;;;;;5072968;28;20029;-68
2022/01/30 09:27:31;;;;;;;15.82;10.32;;;;;;;;;;5065940;28;20483;-68
2022/01/30 09:29:58;;;;;;;17.23;10.18;;;;;;;;;;5072235;28;20118;-68
2022/01/30 09:32:23;;;;;;;12.68;10.30;;;;;;;;;;5081246;28;20044;-68
2022/01/30 09:34:49;;;;;;;18.02;10.38;;;;;;;;;;5066044;28;20052;-69
2022/01/30 09:37:15;;;;;;;13.25;10.32;;;;;;;;;;5069938;28;20672;-69
2022/01/30 09:39:41;;;;;;;17.13;10.18;;;;;;;;;;5082084;28;20070;-69
2022/01/30 09:42:07;;;;;;;17.27;9.98;;;;;;;;;;5085834;28;20511;-69
2022/01/30 09:44:39;;;;;;;22.38;10.85;;;;;;;;;;5085415;28;20040;-69
2022/01/30 09:47:11;;;;;;;22.98;11.88;;;;;;;;;;5080771;28;20021;-69
2022/01/30 09:49:40;;;;;;;17.83;11.00;;;;;;;;;;5080598;28;20051;-69
2022/01/30 09:52:08;;;;;;;24.05;11.55;;;;;;;;;;5077903;28;20035;-69
2022/01/30 09:54:34;;;;;;;20.30;10.40;;;;;;;;;;5074488;28;20523;-69
2022/01/30 09:56:59;;;;;;;15.48;11.63;;;;;;;;;;5069365;28;20025;-68
2022/01/30 09:59:25;;;;;;;19.60;12.13;;;;;;;;;;5080108;28;20040;-69
2022/01/30 10:01:51;;;;;;;15.25;11.40;;;;;;;;;;5065953;28;20609;-69
2022/01/30 10:04:16;;;;;;;20.08;10.93;;;;;;;;;;5072115;28;20036;-69
2022/01/30 10:07:03;;;;;;;13.77;10.90;;;;;;;;;;5080627;28;20040;-69
2022/01/30 10:09:33;;;;;;;31.17;11.23;;;;;;;;;;5086958;22;20510;-70
2022/01/30 10:12:16;;;;;;;15.43;10.45;;;;;;;;;;5087024;28;20375;-70
2022/01/30 10:15:01;;;;;;;11.93;10.70;;;;;;;;;;5089120;28;20154;-70
2022/01/30 10:17:40;;;;;;;15.45;10.40;;;;;;;;;;5087402;28;20131;-69
2022/01/30 10:20:05;;;;;;;17.48;11.55;;;;;;;;;;5083410;28;20573;-70
2022/01/30 10:22:32;;;;;;;21.02;11.27;;;;;;;;;;5082958;28;20139;-70
2022/01/30 10:24:58;;;;;;;20.88;12.02;;;;;;;;;;5083545;28;20042;-70
2022/01/30 10:27:26;;;;;;;15.23;9.85;;;;;;;;;;5079510;28;20036;-70
2022/01/30 10:30:04;;;;;;;17.10;10.93;;;;;;;;;;5086491;28;20097;-70
2022/01/30 10:32:30;;;;;;;15.98;10.82;;;;;;;;;;5089533;28;20085;-70
2022/01/30 10:35:05;;;;;;;22.58;11.27;;;;;;;;;;5085718;28;20475;-70
2022/01/30 10:37:33;;;;;;;17.50;11.10;;;;;;;;;;5082174;28;20028;-69
2022/01/30 10:40:14;;;;;;;11.88;10.52;;;;;;;;;;5089273;28;20461;-69
2022/01/30 10:42:40;;;;;;;24.73;11.02;;;;;;;;;;5087101;28;20147;-69
2022/01/30 10:45:27;;;;;;;17.83;10.45;;;;;;;;;;5087143;28;20456;-69
2022/01/30 10:48:18;;;;;;;21.27;10.75;;;;;;;;;;5085187;28;20600;-70
2022/01/30 10:50:48;;;;;;;15.57;10.63;;;;;;;;;;5088716;28;20059;-70
2022/01/30 10:53:21;;;;;;;22.77;11.35;;;;;;;;;;5082088;28;20066;-69
2022/01/30 10:55:48;;;;;;;21.05;11.18;;;;;;;;;;5086239;28;20047;-69
2022/01/30 10:58:18;;;;;;;18.98;11.38;;;;;;;;;;5082687;28;20123;-70
2022/01/30 11:00:45;;;;;;;22.92;11.95;;;;;;;;;;5081233;28;20123;-69
2022/01/30 11:03:34;;;;;;;19.27;11.02;;;;;;;;;;5080002;28;20036;-70
2022/01/30 11:06:00;;;;;;;;;;;;;;;;;;5082184;28;20090;-70
2022/01/30 11:08:29;;;;;;;13.32;10.45;;;;;;;;;;5088248;28;20476;-69
2022/01/30 11:11:12;;;;;;;16.13;10.98;;;;;;;;;;5081780;28;20100;-69
2022/01/30 11:14:02;;;;;;;18.00;11.00;;;;;;;;;;5095633;28;20519;-69
2022/01/30 11:19:15;;;;;;;23.35;10.57;;;;;;;;;;5086353;28;20069;-69
2022/01/30 11:21:41;;;;;;;15.65;10.43;;;;;;;;;;5084782;28;20044;-69
2022/01/30 11:24:13;;;;;;;17.55;10.80;;;;;;;;;;5079037;28;20586;-70
2022/01/30 11:26:39;;;;;;;17.20;10.27;;;;;;;;;;5088780;28;20081;-70
2022/01/30 11:29:09;;;;;;;19.17;10.57;;;;;;;;;;5085677;28;20024;-69
2022/01/30 11:31:36;;;;;;;16.23;12.60;;;;;;;;;;5084414;28;20375;-70
2022/01/30 11:34:02;;;;;;;17.42;11.40;;;;;;;;;;5089143;28;20542;-70
2022/01/30 11:36:28;;;;;;;20.25;12.27;;;;;;;;;;5084696;28;20403;-70
2022/01/30 11:38:54;;;;;;;17.77;13.05;;;;;;;;;;5077774;28;20036;-70
2022/01/30 11:41:20;;;;;;;16.15;11.10;;;;;;;;;;5086361;28;20124;-70
2022/01/30 11:44:17;;;;;;;18.50;10.93;;;;;;;;;;5081281;28;20055;-70
2022/01/30 11:46:53;;;;;;;21.17;11.32;;;;;;;;;;5085176;28;20403;-70
2022/01/30 11:49:19;;;;;;;16.58;10.65;;;;;;;;;;5081691;28;20063;-70
2022/01/30 11:51:51;;;;;;;15.38;11.10;;;;;;;;;;5076207;28;20097;-70
2022/01/30 11:54:48;;;;;;;18.25;11.95;;;;;;;;;;5077935;28;20032;-70
2022/01/30 11:57:20;;;;;;;24.63;12.18;;;;;;;;;;5087123;28;20575;-69
2022/01/30 11:59:50;;;;;;;17.95;11.95;;;;;;;;;;5086474;28;20067;-70
2022/01/30 12:02:26;;;;;;;21.23;11.95;;;;;;;;;;5080116;28;20040;-70
2022/01/30 12:05:04;;;;;;;13.52;11.00;;;;;;;;;;5075308;28;20033;-70
2022/01/30 12:07:41;;;;;;;18.60;11.38;;;;;;;;;;5077411;28;20498;-70
2022/01/30 12:10:15;;;;;;;17.50;11.32;;;;;;;;;;5086487;28;20047;-70
2022/01/30 12:12:48;;;;;;;15.55;11.60;;;;;;;;;;5086564;28;20040;-69
2022/01/30 12:15:40;;;;;;;18.85;11.93;;;;;;;;;;5072648;28;20032;-70
2022/01/30 12:18:15;;;;;;;17.75;11.93;;;;;;;;;;5080898;28;20028;-70
2022/01/30 12:20:56;;;;;;;14.68;11.95;;;;;;;;;;5084987;28;20085;-70
2022/01/30 12:23:30;;;;;;;16.20;11.90;;;;;;;;;;5077381;28;20040;-70
2022/01/30 12:26:05;;;;;;;17.33;11.25;;;;;;;;;;5080834;28;20528;-70
2022/01/30 12:28:49;;;;;;;17.98;11.23;;;;;;;;;;5086100;28;20035;-69
2022/01/30 12:31:32;;;;;;;13.57;11.10;;;;;;;;;;5086551;28;20480;-70
2022/01/30 12:34:11;;;;;;;16.30;11.13;;;;;;;;;;5079280;28;20503;-70
2022/01/30 12:36:52;;;;;;;17.27;12.20;;;;;;;;;;5084622;28;20036;-70
2022/01/30 12:39:22;;;;;;;19.27;12.32;;;;;;;;;;5086636;28;20043;-70
2022/01/30 12:41:50;;;;;;;16.70;11.80;;;;;;;;;;5073855;28;20039;-70
2022/01/30 12:44:19;;;;;;;13.18;11.52;;;;;;;;;;5081811;28;20119;-69
2022/01/30 12:46:49;;;;;;;16.92;11.05;;;;;;;;;;5080381;28;20402;-69
2022/01/30 12:49:17;;;;;;;18.48;11.82;;;;;;;;;;5079738;28;20071;-69
2022/01/30 12:51:50;;;;;;;15.48;11.05;;;;;;;;;;5078210;28;20037;-69
2022/01/30 12:54:21;;;;;;;16.38;11.20;;;;;;;;;;5084027;28;20039;-69
2022/01/30 12:56:52;;;;;;;17.45;10.70;;;;;;;;;;5083386;28;20043;-69
2022/01/30 12:59:19;;;;;;;19.67;11.52;;;;;;;;;;5081841;28;20028;-69
2022/01/30 13:01:47;;;;;;;16.25;11.00;;;;;;;;;;5080320;28;20043;-69
2022/01/30 13:04:20;;;;;;;15.90;11.10;;;;;;;;;;5084621;28;20402;-69
2022/01/30 13:06:48;;;;;;;13.05;11.57;;;;;;;;;;5076229;28;20028;-69
2022/01/30 13:09:19;;;;;;;19.10;10.93;;;;;;;;;;5084770;28;20239;-70
2022/01/30 13:11:44;;;;;;;16.20;11.32;;;;;;;;;;5085019;28;20062;-69
2022/01/30 13:14:10;;;;;;;13.93;10.57;;;;;;;;;;5083842;28;20032;-70
2022/01/30 13:16:37;;;;;;;19.65;11.30;;;;;;;;;;5062683;28;20093;-69
2022/01/30 13:19:06;;;;;;;17.02;11.27;;;;;;;;;;5081761;28;20044;-70
2022/01/30 13:21:33;;;;;;;17.30;11.38;;;;;;;;;;5083014;28;20044;-69
2022/01/30 13:24:01;;;;;;;15.38;12.07;;;;;;;;;;5074651;28;20127;-69
2022/01/30 13:26:28;;;;;;;16.85;11.43;;;;;;;;;;5081449;28;20032;-69
2022/01/30 13:28:54;;;;;;;15.43;11.35;;;;;;;;;;5086008;28;20115;-69
2022/01/30 13:31:20;;;;;;;20.23;12.05;;;;;;;;;;5086343;28;20110;-69
2022/01/30 13:34:04;;;;;;;14.07;11.55;;;;;;;;;;5077073;28;20063;-69
2022/01/30 13:36:30;;;;;;;18.55;12.88;;;;;;;;;;5082975;28;20044;-69
2022/01/30 13:38:56;;;;;;;16.05;11.88;;;;;;;;;;5087215;28;20062;-69
2022/01/30 13:41:27;;;;;;;14.20;11.55;;;;;;;;;;5090446;28;20123;-69
2022/01/30 13:43:58;;;;;;;16.13;12.15;;;;;;;;;;5083200;28;20101;-69
2022/01/30 13:49:13;;;;;;;16.00;12.10;;;;;;;;;;5090688;28;20374;-69
2022/01/30 13:51:38;;;;;;;16.17;11.65;;;;;;;;;;5071853;28;20047;-70
2022/01/30 13:54:10;;;;;;;14.88;11.45;;;;;;;;;;5078830;28;20052;-70
2022/01/30 13:56:36;;;;;;;14.73;10.95;;;;;;;;;;5090098;28;20572;-70
2022/01/30 13:59:02;;;;;;;17.63;12.07;;;;;;;;;;5089652;28;20414;-69
2022/01/30 14:01:33;;;;;;;14.32;11.00;;;;;;;;;;5074923;28;20028;-70
2022/01/30 14:04:05;;;;;;;20.83;10.82;;;;;;;;;;5084889;28;20433;-69
2022/01/30 14:06:34;;;;;;;17.38;11.20;;;;;;;;;;5088398;28;20036;-69
2022/01/30 14:09:25;;;;;;;13.63;10.65;;;;;;;;;;5082572;28;20122;-69
2022/01/30 14:12:05;;;;;;;13.80;11.10;;;;;;;;;;5078301;28;20040;-69
2022/01/30 14:14:35;;;;;;;15.45;10.32;;;;;;;;;;5093768;28;20035;-69
2022/01/30 14:17:03;;;;;;;16.58;11.95;;;;;;;;;;5086369;28;20047;-69
2022/01/30 14:19:34;;;;;;;20.02;10.13;;;;;;;;;;5087749;28;20482;-68
2022/01/30 14:22:34;;;;;;;12.77;10.63;;;;;;;;;;5076278;28;20064;-69
2022/01/30 14:25:03;;;;;;;13.52;10.73;;;;;;;;;;5081253;28;20034;-69
2022/01/30 14:27:34;;;;;;;11.82;10.23;;;;;;;;;;5088051;28;20495;-69
2022/01/30 14:30:04;;;;;;;17.85;10.63;;;;;;;;;;5083237;28;20097;-69
2022/01/30 14:32:33;;;;;;;;;;;;;;;;;;5079597;28;20115;-69
2022/01/30 14:35:00;;;;;;;16.52;10.25;;;;;;;;;;5087919;28;19923;-71
2022/01/30 14:37:27;;;;;;;13.50;10.13;;;;;;;;;;5079796;28;20028;-71
2022/01/30 14:39:57;;;;;;;14.85;10.15;;;;;;;;;;5081878;28;20055;-70
2022/01/30 14:42:23;;;;;;;14.45;10.30;;;;;;;;;;5087053;28;20032;-70
2022/01/30 14:44:50;;;;;;;10.77;9.77;;;;;;;;;;5086676;28;20036;-70
2022/01/30 14:47:15;;;;;;;14.05;10.13;;;;;;;;;;5085892;28;20177;-70
2022/01/30 14:49:41;;;;;;;13.65;9.77;;;;;;;;;;5088591;28;20505;-70
2022/01/30 14:52:08;;;;;;;14.00;10.32;;;;;;;;;;5083246;28;20324;-70
2022/01/30 14:54:35;;;;;;;14.48;10.23;;;;;;;;;;5081688;28;20120;-70
2022/01/30 14:57:01;;;;;;;15.68;10.50;;;;;;;;;;5076278;28;20483;-70
2022/01/30 14:59:28;;;;;;;16.13;10.88;;;;;;;;;;5087561;28;20032;-70
2022/01/30 15:01:54;;;;;;;15.82;11.35;;;;;;;;;;5088617;28;20522;-70
2022/01/30 15:04:20;;;;;;;12.68;10.55;;;;;;;;;;5082801;28;20028;-70
2022/01/30 15:06:45;;;;;;;15.35;11.13;;;;;;;;;;5081655;28;20073;-68
2022/01/30 15:09:11;;;;;;;17.83;10.90;;;;;;;;;;5088138;28;20402;-70
2022/01/30 15:11:36;;;;;;;15.07;9.80;;;;;;;;;;5085335;28;20036;-69
2022/01/30 15:14:03;;;;;;;14.18;10.27;;;;;;;;;;5082365;28;20125;-69
2022/01/30 15:16:49;;;;;;;10.45;9.50;;;;;;;;;;5083688;28;20093;-69
2022/01/30 15:19:17;;;;;;;14.98;9.88;;;;;;;;;;5078279;28;20359;-69
2022/01/30 15:21:43;;;;;;;14.27;10.75;;;;;;;;;;5077946;28;20045;-69
2022/01/30 15:24:10;;;;;;;15.63;9.82;;;;;;;;;;5077822;28;20143;-69
2022/01/30 15:26:36;;;;;;;16.63;11.93;;;;;;;;;;5077677;28;20085;-70
2022/01/30 15:29:05;;;;;;;15.57;10.80;;;;;;;;;;5083003;28;20039;-70
2022/01/30 15:31:30;;;;;;;12.23;9.52;;;;;;;;;;5086946;28;20035;-69
2022/01/30 15:33:57;;;;;;;17.42;10.40;;;;;;;;;;5079903;28;20034;-69
2022/01/30 15:36:23;;;;;;;16.15;11.05;;;;;;;;;;5083244;28;20441;-69
2022/01/30 15:38:50;;;;;;;16.13;10.98;;;;;;;;;;5079113;28;20044;-69
2022/01/30 15:41:16;;;;;;;15.82;10.43;;;;;;;;;;5085856;28;20254;-69